This is the latest recevied weather packets stored in our database for station/object AI5KP-13. If no packets are shown the sender has not sent any weather packets the latest 1 day(s).
| Time | Temp. | Humidity | Pressure | Rain* | Wind** | Luminosity | Snow |
|---|---|---|---|---|---|---|---|
| 1778021918 | 12.78° C | 90% | 1007 hPa | 0 mm | 1.34 m/s, 330° | 18 W/m² | - |
| 1778021617 | 12.78° C | 90% | 1006.8 hPa | 0 mm | 0.89 m/s, 10° | 18 W/m² | - |
| 1778021316 | 12.78° C | 90% | 1006.7 hPa | 0 mm | 1.34 m/s, 356° | 18 W/m² | - |
| 1778021015 | 12.78° C | 90% | 1006 hPa | 0 mm | 2.24 m/s, 22° | 23 W/m² | - |
| 1778020711 | 12.78° C | 89% | 1005.6 hPa | 0 mm | 3.13 m/s, 33° | 36 W/m² | - |
| 1778020409 | 12.78° C | 90% | 1006 hPa | 0 mm | 3.13 m/s, 1° | 31 W/m² | - |
| 1778020104 | 13.33° C | 90% | 1006.6 hPa | 0 mm | 3.58 m/s, 359° | 25 W/m² | - |
| 1778019800 | 13.33° C | 89% | 1006.8 hPa | 0 mm | 3.13 m/s, 358° | 24 W/m² | - |
| 1778019498 | 13.33° C | 89% | 1007 hPa | 0 mm | 2.24 m/s, 7° | 19 W/m² | - |
| 1778019194 | 13.89° C | 89% | 1006.8 hPa | 0 mm | 1.34 m/s, 322° | 15 W/m² | - |
| 1778018892 | 13.89° C | 89% | 1006.5 hPa | 0 mm | 2.24 m/s, 355° | 29 W/m² | - |
| 1778018588 | 13.89° C | 89% | 1006.1 hPa | 0 mm | 1.34 m/s, 32° | 34 W/m² | - |
| 1778018287 | 13.89° C | 89% | 1006 hPa | 0 mm | 2.24 m/s, 18° | 37 W/m² | - |
| 1778017984 | 14.44° C | 89% | 1005.8 hPa | 0 mm | 1.79 m/s, 24° | 60 W/m² | - |
| 1778017682 | 14.44° C | 89% | 1005.6 hPa | 0 mm | 0.89 m/s, 54° | 60 W/m² | - |
| 1778017379 | 14.44° C | 88% | 1005.5 hPa | 0 mm | 4.02 m/s, 337° | 59 W/m² | - |
| 1778017076 | 14.44° C | 89% | 1005.7 hPa | 0 mm | 1.79 m/s, 14° | 51 W/m² | - |
| 1778016774 | 15° C | 88% | 1005.7 hPa | 0 mm | 2.24 m/s, 12° | 55 W/m² | - |
| 1778016469 | 15° C | 89% | 1006 hPa | 0 mm | 2.24 m/s, 5° | 66 W/m² | - |
| 1778016167 | 15° C | 89% | 1006.1 hPa | 0 mm | 3.58 m/s, 15° | 58 W/m² | - |
| 1778015863 | 15° C | 89% | 1006.3 hPa | 0 mm | 2.24 m/s, 329° | 47 W/m² | - |
| 1778015561 | 15° C | 89% | 1005.9 hPa | 0 mm | 1.79 m/s, 7° | 49 W/m² | - |
| 1778015257 | 15° C | 89% | 1005.7 hPa | 0 mm | 2.68 m/s, 336° | 53 W/m² | - |
| 1778014954 | 15.56° C | 88% | 1005.6 hPa | 0 mm | 2.24 m/s, 29° | 55 W/m² | - |
| 1778014651 | 15.56° C | 87% | 1005.5 hPa | 0 mm | 1.79 m/s, 308° | 62 W/m² | - |
* Rain latest hour (hover to see other rain measurements)
** Current wind speed in m/s (hover to see current wind gust speed)